sensor_id;sensor_type;location;lat;lon;timestamp;P1;durP1;ratioP1;P2;durP2;ratioP2
25079;SDS011;13071;48.868;9.996;2023-10-19T00:02:06;20.80;;;9.57;;
25079;SDS011;13071;48.868;9.996;2023-10-19T00:04:33;18.58;;;8.90;;
25079;SDS011;13071;48.868;9.996;2023-10-19T00:07:01;20.17;;;9.45;;
25079;SDS011;13071;48.868;9.996;2023-10-19T00:09:29;18.70;;;10.30;;
25079;SDS011;13071;48.868;9.996;2023-10-19T00:12:01;19.83;;;10.27;;
25079;SDS011;13071;48.868;9.996;2023-10-19T00:14:28;17.75;;;9.20;;
25079;SDS011;13071;48.868;9.996;2023-10-19T00:16:57;20.38;;;9.82;;
25079;SDS011;13071;48.868;9.996;2023-10-19T00:19:25;21.67;;;10.63;;
25079;SDS011;13071;48.868;9.996;2023-10-19T00:21:54;22.88;;;9.82;;
25079;SDS011;13071;48.868;9.996;2023-10-19T00:24:26;22.42;;;10.98;;
25079;SDS011;13071;48.868;9.996;2023-10-19T00:26:56;22.23;;;9.48;;
25079;SDS011;13071;48.868;9.996;2023-10-19T00:29:30;24.48;;;10.18;;
25079;SDS011;13071;48.868;9.996;2023-10-19T00:31:57;22.83;;;10.00;;
25079;SDS011;13071;48.868;9.996;2023-10-19T00:34:25;19.38;;;9.75;;
25079;SDS011;13071;48.868;9.996;2023-10-19T00:36:55;22.70;;;9.93;;
25079;SDS011;13071;48.868;9.996;2023-10-19T00:39:21;18.67;;;9.45;;
25079;SDS011;13071;48.868;9.996;2023-10-19T00:41:48;17.20;;;9.52;;
25079;SDS011;13071;48.868;9.996;2023-10-19T00:44:20;17.58;;;8.52;;
25079;SDS011;13071;48.868;9.996;2023-10-19T00:46:56;17.00;;;8.80;;
25079;SDS011;13071;48.868;9.996;2023-10-19T00:49:29;20.10;;;9.98;;
25079;SDS011;13071;48.868;9.996;2023-10-19T00:51:58;19.85;;;10.38;;
25079;SDS011;13071;48.868;9.996;2023-10-19T00:54:29;19.67;;;10.55;;
25079;SDS011;13071;48.868;9.996;2023-10-19T00:57:00;22.70;;;10.50;;
25079;SDS011;13071;48.868;9.996;2023-10-19T00:59:32;21.00;;;10.48;;
25079;SDS011;13071;48.868;9.996;2023-10-19T01:02:08;18.77;;;9.23;;
25079;SDS011;13071;48.868;9.996;2023-10-19T01:04:45;18.73;;;9.23;;
25079;SDS011;13071;48.868;9.996;2023-10-19T01:07:17;17.52;;;9.25;;
25079;SDS011;13071;48.868;9.996;2023-10-19T01:09:52;18.30;;;8.85;;
25079;SDS011;13071;48.868;9.996;2023-10-19T01:12:21;17.83;;;8.65;;
25079;SDS011;13071;48.868;9.996;2023-10-19T01:15:05;18.63;;;9.55;;
25079;SDS011;13071;48.868;9.996;2023-10-19T01:17:35;16.30;;;8.73;;
25079;SDS011;13071;48.868;9.996;2023-10-19T01:20:08;17.17;;;9.23;;
25079;SDS011;13071;48.868;9.996;2023-10-19T01:22:54;18.60;;;9.10;;
25079;SDS011;13071;48.868;9.996;2023-10-19T01:25:43;17.55;;;8.77;;
25079;SDS011;13071;48.868;9.996;2023-10-19T01:28:14;15.27;;;8.27;;
25079;SDS011;13071;48.868;9.996;2023-10-19T01:30:42;16.02;;;8.65;;
25079;SDS011;13071;48.868;9.996;2023-10-19T01:33:09;18.52;;;9.73;;
25079;SDS011;13071;48.868;9.996;2023-10-19T01:35:41;19.23;;;9.60;;
25079;SDS011;13071;48.868;9.996;2023-10-19T01:38:27;17.85;;;9.13;;
25079;SDS011;13071;48.868;9.996;2023-10-19T01:40:56;19.27;;;9.13;;
25079;SDS011;13071;48.868;9.996;2023-10-19T01:43:24;19.10;;;9.65;;
25079;SDS011;13071;48.868;9.996;2023-10-19T01:45:55;19.45;;;8.90;;
25079;SDS011;13071;48.868;9.996;2023-10-19T01:48:21;17.90;;;8.70;;
25079;SDS011;13071;48.868;9.996;2023-10-19T01:50:53;17.52;;;9.40;;
25079;SDS011;13071;48.868;9.996;2023-10-19T01:53:19;15.95;;;8.60;;
25079;SDS011;13071;48.868;9.996;2023-10-19T01:55:51;15.43;;;8.82;;
25079;SDS011;13071;48.868;9.996;2023-10-19T01:58:23;12.38;;;6.88;;
25079;SDS011;13071;48.868;9.996;2023-10-19T02:00:50;14.02;;;7.82;;
25079;SDS011;13071;48.868;9.996;2023-10-19T02:03:19;13.05;;;7.47;;
25079;SDS011;13071;48.868;9.996;2023-10-19T02:05:46;12.32;;;7.35;;
25079;SDS011;13071;48.868;9.996;2023-10-19T02:08:15;14.30;;;7.93;;
25079;SDS011;13071;48.868;9.996;2023-10-19T02:10:45;14.80;;;7.65;;
25079;SDS011;13071;48.868;9.996;2023-10-19T02:13:14;19.48;;;7.25;;
25079;SDS011;13071;48.868;9.996;2023-10-19T02:15:42;13.82;;;8.00;;
25079;SDS011;13071;48.868;9.996;2023-10-19T02:18:09;16.35;;;8.77;;
25079;SDS011;13071;48.868;9.996;2023-10-19T02:20:36;20.88;;;9.77;;
25079;SDS011;13071;48.868;9.996;2023-10-19T02:23:06;15.68;;;8.75;;
25079;SDS011;13071;48.868;9.996;2023-10-19T02:25:33;19.83;;;9.35;;
25079;SDS011;13071;48.868;9.996;2023-10-19T02:28:02;18.92;;;9.52;;
25079;SDS011;13071;48.868;9.996;2023-10-19T02:30:30;19.17;;;9.80;;
25079;SDS011;13071;48.868;9.996;2023-10-19T02:32:56;18.48;;;9.23;;
25079;SDS011;13071;48.868;9.996;2023-10-19T02:35:22;18.05;;;9.48;;
25079;SDS011;13071;48.868;9.996;2023-10-19T02:37:49;20.35;;;9.15;;
25079;SDS011;13071;48.868;9.996;2023-10-19T02:40:14;16.10;;;8.82;;
25079;SDS011;13071;48.868;9.996;2023-10-19T02:42:46;15.93;;;8.75;;
25079;SDS011;13071;48.868;9.996;2023-10-19T02:45:13;16.48;;;8.52;;
25079;SDS011;13071;48.868;9.996;2023-10-19T02:47:43;17.45;;;9.35;;
25079;SDS011;13071;48.868;9.996;2023-10-19T02:50:10;16.98;;;8.93;;
25079;SDS011;13071;48.868;9.996;2023-10-19T02:52:39;19.90;;;9.73;;
25079;SDS011;13071;48.868;9.996;2023-10-19T02:55:06;19.52;;;10.40;;
25079;SDS011;13071;48.868;9.996;2023-10-19T02:57:34;20.00;;;10.40;;
25079;SDS011;13071;48.868;9.996;2023-10-19T03:00:00;17.27;;;9.52;;
25079;SDS011;13071;48.868;9.996;2023-10-19T03:02:33;22.42;;;10.40;;
25079;SDS011;13071;48.868;9.996;2023-10-19T03:05:00;17.67;;;8.70;;
25079;SDS011;13071;48.868;9.996;2023-10-19T03:07:34;15.88;;;8.73;;
25079;SDS011;13071;48.868;9.996;2023-10-19T03:10:00;17.55;;;9.55;;
25079;SDS011;13071;48.868;9.996;2023-10-19T03:12:27;18.52;;;9.38;;
25079;SDS011;13071;48.868;9.996;2023-10-19T03:14:53;19.88;;;9.52;;
25079;SDS011;13071;48.868;9.996;2023-10-19T03:17:19;17.65;;;9.65;;
25079;SDS011;13071;48.868;9.996;2023-10-19T03:19:45;16.48;;;9.48;;
25079;SDS011;13071;48.868;9.996;2023-10-19T03:22:14;18.83;;;9.13;;
25079;SDS011;13071;48.868;9.996;2023-10-19T03:24:42;16.98;;;9.02;;
25079;SDS011;13071;48.868;9.996;2023-10-19T03:27:09;16.88;;;9.48;;
25079;SDS011;13071;48.868;9.996;2023-10-19T03:29:38;17.88;;;8.52;;
25079;SDS011;13071;48.868;9.996;2023-10-19T03:32:05;20.73;;;8.48;;
25079;SDS011;13071;48.868;9.996;2023-10-19T03:34:33;20.42;;;9.25;;
25079;SDS011;13071;48.868;9.996;2023-10-19T03:37:00;18.88;;;8.98;;
25079;SDS011;13071;48.868;9.996;2023-10-19T03:39:32;17.23;;;8.45;;
25079;SDS011;13071;48.868;9.996;2023-10-19T03:42:00;14.95;;;8.98;;
25079;SDS011;13071;48.868;9.996;2023-10-19T03:44:31;18.77;;;9.48;;
25079;SDS011;13071;48.868;9.996;2023-10-19T03:47:08;13.95;;;8.50;;
25079;SDS011;13071;48.868;9.996;2023-10-19T03:49:37;18.65;;;9.73;;
25079;SDS011;13071;48.868;9.996;2023-10-19T03:52:04;15.48;;;8.95;;
25079;SDS011;13071;48.868;9.996;2023-10-19T03:54:47;15.45;;;8.35;;
25079;SDS011;13071;48.868;9.996;2023-10-19T03:57:15;14.60;;;7.95;;
25079;SDS011;13071;48.868;9.996;2023-10-19T03:59:47;16.85;;;8.57;;
25079;SDS011;13071;48.868;9.996;2023-10-19T04:02:17;15.88;;;8.50;;
25079;SDS011;13071;48.868;9.996;2023-10-19T04:04:45;18.83;;;8.85;;
25079;SDS011;13071;48.868;9.996;2023-10-19T04:07:14;18.30;;;8.38;;
25079;SDS011;13071;48.868;9.996;2023-10-19T04:09:46;15.40;;;8.38;;
25079;SDS011;13071;48.868;9.996;2023-10-19T04:12:30;17.08;;;8.73;;
25079;SDS011;13071;48.868;9.996;2023-10-19T04:14:58;18.02;;;8.13;;
25079;SDS011;13071;48.868;9.996;2023-10-19T04:17:34;20.60;;;9.27;;
25079;SDS011;13071;48.868;9.996;2023-10-19T04:20:01;13.70;;;7.93;;
25079;SDS011;13071;48.868;9.996;2023-10-19T04:22:38;17.55;;;8.95;;
25079;SDS011;13071;48.868;9.996;2023-10-19T04:25:06;15.85;;;8.48;;
25079;SDS011;13071;48.868;9.996;2023-10-19T04:27:37;18.25;;;8.50;;
25079;SDS011;13071;48.868;9.996;2023-10-19T04:30:04;14.57;;;7.63;;
25079;SDS011;13071;48.868;9.996;2023-10-19T04:32:40;15.25;;;8.02;;
25079;SDS011;13071;48.868;9.996;2023-10-19T04:35:07;13.63;;;8.18;;
25079;SDS011;13071;48.868;9.996;2023-10-19T04:37:34;15.02;;;7.95;;
25079;SDS011;13071;48.868;9.996;2023-10-19T04:40:01;17.83;;;11.02;;
25079;SDS011;13071;48.868;9.996;2023-10-19T04:42:30;19.10;;;11.43;;
25079;SDS011;13071;48.868;9.996;2023-10-19T04:44:57;17.10;;;9.02;;
25079;SDS011;13071;48.868;9.996;2023-10-19T04:47:24;18.02;;;9.32;;
25079;SDS011;13071;48.868;9.996;2023-10-19T04:49:51;15.85;;;8.63;;
25079;SDS011;13071;48.868;9.996;2023-10-19T04:52:17;12.85;;;7.28;;
25079;SDS011;13071;48.868;9.996;2023-10-19T04:54:44;13.55;;;7.93;;
25079;SDS011;13071;48.868;9.996;2023-10-19T04:57:11;15.75;;;8.18;;
25079;SDS011;13071;48.868;9.996;2023-10-19T04:59:39;19.42;;;9.07;;
25079;SDS011;13071;48.868;9.996;2023-10-19T05:02:10;17.90;;;8.82;;
25079;SDS011;13071;48.868;9.996;2023-10-19T05:04:37;21.55;;;9.10;;
25079;SDS011;13071;48.868;9.996;2023-10-19T05:07:03;19.55;;;8.80;;
25079;SDS011;13071;48.868;9.996;2023-10-19T05:09:31;18.75;;;9.35;;
25079;SDS011;13071;48.868;9.996;2023-10-19T05:11:58;19.77;;;9.15;;
25079;SDS011;13071;48.868;9.996;2023-10-19T05:14:24;19.58;;;9.93;;
25079;SDS011;13071;48.868;9.996;2023-10-19T05:16:52;21.25;;;10.10;;
25079;SDS011;13071;48.868;9.996;2023-10-19T05:19:19;19.33;;;10.05;;
25079;SDS011;13071;48.868;9.996;2023-10-19T05:21:46;18.58;;;9.50;;
25079;SDS011;13071;48.868;9.996;2023-10-19T05:24:12;24.92;;;9.95;;
25079;SDS011;13071;48.868;9.996;2023-10-19T05:26:39;23.77;;;10.77;;
25079;SDS011;13071;48.868;9.996;2023-10-19T05:29:06;18.25;;;9.35;;
25079;SDS011;13071;48.868;9.996;2023-10-19T05:31:32;18.88;;;9.10;;
25079;SDS011;13071;48.868;9.996;2023-10-19T05:34:01;23.50;;;9.75;;
25079;SDS011;13071;48.868;9.996;2023-10-19T05:36:29;20.08;;;9.75;;
25079;SDS011;13071;48.868;9.996;2023-10-19T05:38:57;26.95;;;10.85;;
25079;SDS011;13071;48.868;9.996;2023-10-19T05:41:24;19.83;;;9.77;;
25079;SDS011;13071;48.868;9.996;2023-10-19T05:43:51;25.83;;;11.23;;
25079;SDS011;13071;48.868;9.996;2023-10-19T05:46:18;18.48;;;9.27;;
25079;SDS011;13071;48.868;9.996;2023-10-19T05:48:47;19.33;;;9.55;;
25079;SDS011;13071;48.868;9.996;2023-10-19T05:51:16;19.08;;;9.95;;
25079;SDS011;13071;48.868;9.996;2023-10-19T05:53:43;19.75;;;10.32;;
25079;SDS011;13071;48.868;9.996;2023-10-19T05:56:10;21.95;;;10.48;;
25079;SDS011;13071;48.868;9.996;2023-10-19T05:58:36;18.83;;;10.20;;
25079;SDS011;13071;48.868;9.996;2023-10-19T06:01:03;18.88;;;9.88;;
25079;SDS011;13071;48.868;9.996;2023-10-19T06:03:30;19.05;;;9.27;;
25079;SDS011;13071;48.868;9.996;2023-10-19T06:05:56;16.77;;;8.80;;
25079;SDS011;13071;48.868;9.996;2023-10-19T06:08:24;15.70;;;8.43;;
25079;SDS011;13071;48.868;9.996;2023-10-19T06:10:52;20.75;;;9.90;;
25079;SDS011;13071;48.868;9.996;2023-10-19T06:13:19;18.80;;;9.57;;
25079;SDS011;13071;48.868;9.996;2023-10-19T06:15:47;21.73;;;10.30;;
25079;SDS011;13071;48.868;9.996;2023-10-19T06:18:14;19.45;;;9.35;;
25079;SDS011;13071;48.868;9.996;2023-10-19T06:20:42;18.10;;;9.13;;
25079;SDS011;13071;48.868;9.996;2023-10-19T06:23:10;17.77;;;8.80;;
25079;SDS011;13071;48.868;9.996;2023-10-19T06:25:38;17.08;;;9.02;;
25079;SDS011;13071;48.868;9.996;2023-10-19T06:28:08;19.25;;;9.90;;
25079;SDS011;13071;48.868;9.996;2023-10-19T06:30:36;14.73;;;8.35;;
25079;SDS011;13071;48.868;9.996;2023-10-19T06:33:03;17.05;;;9.30;;
25079;SDS011;13071;48.868;9.996;2023-10-19T06:35:31;20.08;;;9.52;;
25079;SDS011;13071;48.868;9.996;2023-10-19T06:37:58;21.88;;;10.10;;
25079;SDS011;13071;48.868;9.996;2023-10-19T06:40:25;17.30;;;8.65;;
25079;SDS011;13071;48.868;9.996;2023-10-19T06:42:55;18.75;;;9.48;;
25079;SDS011;13071;48.868;9.996;2023-10-19T06:45:23;21.90;;;10.40;;
25079;SDS011;13071;48.868;9.996;2023-10-19T06:47:51;22.38;;;9.80;;
25079;SDS011;13071;48.868;9.996;2023-10-19T06:50:19;23.17;;;10.77;;
25079;SDS011;13071;48.868;9.996;2023-10-19T06:52:47;19.38;;;10.13;;
25079;SDS011;13071;48.868;9.996;2023-10-19T06:55:14;18.77;;;9.95;;
25079;SDS011;13071;48.868;9.996;2023-10-19T06:57:44;19.23;;;10.10;;
25079;SDS011;13071;48.868;9.996;2023-10-19T07:00:12;21.10;;;10.35;;
25079;SDS011;13071;48.868;9.996;2023-10-19T07:02:41;20.23;;;10.55;;
25079;SDS011;13071;48.868;9.996;2023-10-19T07:05:08;19.70;;;9.93;;
25079;SDS011;13071;48.868;9.996;2023-10-19T07:07:36;23.15;;;10.93;;
25079;SDS011;13071;48.868;9.996;2023-10-19T07:10:05;20.52;;;10.07;;
25079;SDS011;13071;48.868;9.996;2023-10-19T07:12:33;23.20;;;10.18;;
25079;SDS011;13071;48.868;9.996;2023-10-19T07:15:00;21.15;;;9.70;;
25079;SDS011;13071;48.868;9.996;2023-10-19T07:17:29;18.50;;;9.65;;
25079;SDS011;13071;48.868;9.996;2023-10-19T07:19:57;20.35;;;10.27;;
25079;SDS011;13071;48.868;9.996;2023-10-19T07:22:24;15.85;;;9.38;;
25079;SDS011;13071;48.868;9.996;2023-10-19T07:24:51;21.38;;;10.18;;
25079;SDS011;13071;48.868;9.996;2023-10-19T07:27:17;15.57;;;8.80;;
25079;SDS011;13071;48.868;9.996;2023-10-19T07:29:44;19.73;;;9.57;;
25079;SDS011;13071;48.868;9.996;2023-10-19T07:32:12;17.80;;;9.73;;
25079;SDS011;13071;48.868;9.996;2023-10-19T07:34:43;17.77;;;9.70;;
25079;SDS011;13071;48.868;9.996;2023-10-19T07:37:10;17.20;;;9.23;;
25079;SDS011;13071;48.868;9.996;2023-10-19T07:39:40;19.80;;;9.18;;
25079;SDS011;13071;48.868;9.996;2023-10-19T07:42:07;20.05;;;10.75;;
25079;SDS011;13071;48.868;9.996;2023-10-19T07:44:34;15.65;;;9.52;;
25079;SDS011;13071;48.868;9.996;2023-10-19T07:47:01;20.80;;;10.52;;
25079;SDS011;13071;48.868;9.996;2023-10-19T07:49:27;18.02;;;9.68;;
25079;SDS011;13071;48.868;9.996;2023-10-19T07:51:55;17.95;;;9.82;;
25079;SDS011;13071;48.868;9.996;2023-10-19T07:54:22;16.65;;;9.10;;
25079;SDS011;13071;48.868;9.996;2023-10-19T07:56:49;13.60;;;8.43;;
25079;SDS011;13071;48.868;9.996;2023-10-19T07:59:16;16.13;;;9.38;;
25079;SDS011;13071;48.868;9.996;2023-10-19T08:01:43;16.15;;;8.68;;
25079;SDS011;13071;48.868;9.996;2023-10-19T08:04:10;20.52;;;9.98;;
25079;SDS011;13071;48.868;9.996;2023-10-19T08:06:37;17.52;;;9.70;;
25079;SDS011;13071;48.868;9.996;2023-10-19T08:09:05;18.48;;;10.23;;
25079;SDS011;13071;48.868;9.996;2023-10-19T08:11:31;24.77;;;10.85;;
25079;SDS011;13071;48.868;9.996;2023-10-19T08:13:59;15.73;;;9.73;;
25079;SDS011;13071;48.868;9.996;2023-10-19T08:16:25;16.52;;;9.45;;
25079;SDS011;13071;48.868;9.996;2023-10-19T08:18:52;18.40;;;9.30;;
25079;SDS011;13071;48.868;9.996;2023-10-19T08:21:19;20.63;;;9.85;;
25079;SDS011;13071;48.868;9.996;2023-10-19T08:23:46;16.83;;;9.07;;
25079;SDS011;13071;48.868;9.996;2023-10-19T08:26:14;22.95;;;10.98;;
25079;SDS011;13071;48.868;9.996;2023-10-19T08:28:41;22.33;;;11.25;;
25079;SDS011;13071;48.868;9.996;2023-10-19T08:31:08;22.30;;;11.32;;
25079;SDS011;13071;48.868;9.996;2023-10-19T08:33:35;22.40;;;11.05;;
25079;SDS011;13071;48.868;9.996;2023-10-19T08:36:04;21.38;;;11.48;;
25079;SDS011;13071;48.868;9.996;2023-10-19T08:38:31;24.00;;;10.85;;
25079;SDS011;13071;48.868;9.996;2023-10-19T08:40:58;20.27;;;10.65;;
25079;SDS011;13071;48.868;9.996;2023-10-19T08:43:28;17.75;;;10.45;;
25079;SDS011;13071;48.868;9.996;2023-10-19T08:45:56;20.08;;;11.15;;
25079;SDS011;13071;48.868;9.996;2023-10-19T08:48:24;24.08;;;12.15;;
25079;SDS011;13071;48.868;9.996;2023-10-19T08:50:51;23.05;;;10.50;;
25079;SDS011;13071;48.868;9.996;2023-10-19T08:53:18;20.13;;;10.32;;
25079;SDS011;13071;48.868;9.996;2023-10-19T08:55:47;19.13;;;10.20;;
25079;SDS011;13071;48.868;9.996;2023-10-19T08:58:15;19.92;;;10.75;;
25079;SDS011;13071;48.868;9.996;2023-10-19T09:00:45;16.65;;;9.63;;
25079;SDS011;13071;48.868;9.996;2023-10-19T09:03:13;20.85;;;11.30;;
25079;SDS011;13071;48.868;9.996;2023-10-19T09:05:41;21.05;;;10.70;;
25079;SDS011;13071;48.868;9.996;2023-10-19T09:08:09;22.10;;;10.93;;
25079;SDS011;13071;48.868;9.996;2023-10-19T09:10:42;16.45;;;8.57;;
25079;SDS011;13071;48.868;9.996;2023-10-19T09:13:10;17.77;;;9.20;;
25079;SDS011;13071;48.868;9.996;2023-10-19T09:15:37;19.90;;;10.65;;
25079;SDS011;13071;48.868;9.996;2023-10-19T09:18:16;19.17;;;9.65;;
25079;SDS011;13071;48.868;9.996;2023-10-19T09:20:44;17.70;;;9.63;;
25079;SDS011;13071;48.868;9.996;2023-10-19T09:23:19;20.88;;;10.10;;
25079;SDS011;13071;48.868;9.996;2023-10-19T09:25:47;22.60;;;10.43;;
25079;SDS011;13071;48.868;9.996;2023-10-19T09:28:15;18.05;;;9.60;;
25079;SDS011;13071;48.868;9.996;2023-10-19T09:30:42;21.58;;;10.68;;
25079;SDS011;13071;48.868;9.996;2023-10-19T09:33:09;21.17;;;10.52;;
25079;SDS011;13071;48.868;9.996;2023-10-19T09:35:40;17.30;;;9.63;;
25079;SDS011;13071;48.868;9.996;2023-10-19T09:38:08;17.63;;;9.50;;
25079;SDS011;13071;48.868;9.996;2023-10-19T09:40:35;18.45;;;9.10;;
25079;SDS011;13071;48.868;9.996;2023-10-19T09:43:04;22.02;;;10.38;;
25079;SDS011;13071;48.868;9.996;2023-10-19T09:45:35;20.42;;;9.63;;
25079;SDS011;13071;48.868;9.996;2023-10-19T09:48:07;16.85;;;8.73;;
25079;SDS011;13071;48.868;9.996;2023-10-19T09:50:34;15.18;;;9.05;;
25079;SDS011;13071;48.868;9.996;2023-10-19T09:53:02;14.05;;;7.82;;
25079;SDS011;13071;48.868;9.996;2023-10-19T09:55:32;14.95;;;8.45;;
25079;SDS011;13071;48.868;9.996;2023-10-19T09:58:04;13.35;;;8.00;;
25079;SDS011;13071;48.868;9.996;2023-10-19T10:00:35;13.38;;;7.70;;
25079;SDS011;13071;48.868;9.996;2023-10-19T10:03:03;12.70;;;7.43;;
25079;SDS011;13071;48.868;9.996;2023-10-19T10:05:46;12.93;;;7.38;;
25079;SDS011;13071;48.868;9.996;2023-10-19T10:08:33;14.52;;;7.82;;
25079;SDS011;13071;48.868;9.996;2023-10-19T10:13:45;12.48;;;6.00;;
25079;SDS011;13071;48.868;9.996;2023-10-19T10:16:15;10.98;;;6.95;;
25079;SDS011;13071;48.868;9.996;2023-10-19T10:18:43;10.88;;;6.80;;
25079;SDS011;13071;48.868;9.996;2023-10-19T10:21:13;11.10;;;6.57;;
25079;SDS011;13071;48.868;9.996;2023-10-19T10:23:44;12.82;;;7.53;;
25079;SDS011;13071;48.868;9.996;2023-10-19T10:26:13;15.88;;;8.65;;
25079;SDS011;13071;48.868;9.996;2023-10-19T10:28:41;13.43;;;8.52;;
25079;SDS011;13071;48.868;9.996;2023-10-19T10:31:15;15.85;;;8.68;;
25079;SDS011;13071;48.868;9.996;2023-10-19T10:33:46;13.35;;;8.25;;
25079;SDS011;13071;48.868;9.996;2023-10-19T10:36:14;16.05;;;8.45;;
25079;SDS011;13071;48.868;9.996;2023-10-19T10:38:43;10.82;;;6.63;;
25079;SDS011;13071;48.868;9.996;2023-10-19T10:41:11;12.95;;;7.28;;
25079;SDS011;13071;48.868;9.996;2023-10-19T10:43:53;13.15;;;7.03;;
25079;SDS011;13071;48.868;9.996;2023-10-19T10:46:21;12.70;;;7.28;;
25079;SDS011;13071;48.868;9.996;2023-10-19T10:48:49;11.30;;;7.05;;
25079;SDS011;13071;48.868;9.996;2023-10-19T10:51:20;12.82;;;6.75;;
25079;SDS011;13071;48.868;9.996;2023-10-19T10:53:50;12.52;;;6.75;;
25079;SDS011;13071;48.868;9.996;2023-10-19T10:56:18;10.38;;;6.47;;
25079;SDS011;13071;48.868;9.996;2023-10-19T10:58:45;10.75;;;6.88;;
25079;SDS011;13071;48.868;9.996;2023-10-19T11:01:12;9.68;;;6.03;;
25079;SDS011;13071;48.868;9.996;2023-10-19T11:03:39;12.15;;;6.90;;
25079;SDS011;13071;48.868;9.996;2023-10-19T11:06:06;16.30;;;6.70;;
25079;SDS011;13071;48.868;9.996;2023-10-19T11:08:34;12.73;;;7.15;;
25079;SDS011;13071;48.868;9.996;2023-10-19T11:11:03;12.48;;;7.32;;
25079;SDS011;13071;48.868;9.996;2023-10-19T11:13:31;13.88;;;7.05;;
25079;SDS011;13071;48.868;9.996;2023-10-19T11:16:03;12.43;;;7.75;;
25079;SDS011;13071;48.868;9.996;2023-10-19T11:18:31;14.18;;;8.52;;
25079;SDS011;13071;48.868;9.996;2023-10-19T11:21:00;14.40;;;8.48;;
25079;SDS011;13071;48.868;9.996;2023-10-19T11:23:37;17.58;;;8.70;;
25079;SDS011;13071;48.868;9.996;2023-10-19T11:26:05;16.63;;;8.90;;
25079;SDS011;13071;48.868;9.996;2023-10-19T11:28:32;16.98;;;8.98;;
25079;SDS011;13071;48.868;9.996;2023-10-19T11:31:14;15.05;;;8.60;;
25079;SDS011;13071;48.868;9.996;2023-10-19T11:33:42;14.13;;;8.65;;
25079;SDS011;13071;48.868;9.996;2023-10-19T11:36:10;16.35;;;9.30;;
25079;SDS011;13071;48.868;9.996;2023-10-19T11:38:41;17.73;;;9.07;;
25079;SDS011;13071;48.868;9.996;2023-10-19T11:41:10;16.08;;;8.68;;
25079;SDS011;13071;48.868;9.996;2023-10-19T11:43:37;14.82;;;8.63;;
25079;SDS011;13071;48.868;9.996;2023-10-19T11:46:04;15.30;;;8.38;;
25079;SDS011;13071;48.868;9.996;2023-10-19T11:48:32;14.57;;;8.45;;
25079;SDS011;13071;48.868;9.996;2023-10-19T11:50:59;17.20;;;8.45;;
25079;SDS011;13071;48.868;9.996;2023-10-19T11:53:29;14.93;;;8.98;;
25079;SDS011;13071;48.868;9.996;2023-10-19T11:55:58;12.43;;;7.55;;
25079;SDS011;13071;48.868;9.996;2023-10-19T11:58:27;13.32;;;8.35;;
25079;SDS011;13071;48.868;9.996;2023-10-19T12:00:53;14.32;;;7.93;;
25079;SDS011;13071;48.868;9.996;2023-10-19T12:03:20;17.17;;;8.45;;
25079;SDS011;13071;48.868;9.996;2023-10-19T12:05:47;13.57;;;7.97;;
25079;SDS011;13071;48.868;9.996;2023-10-19T12:08:13;14.75;;;8.35;;
25079;SDS011;13071;48.868;9.996;2023-10-19T12:10:40;12.32;;;7.30;;
25079;SDS011;13071;48.868;9.996;2023-10-19T12:13:07;15.05;;;8.48;;
25079;SDS011;13071;48.868;9.996;2023-10-19T12:15:35;14.35;;;8.57;;
25079;SDS011;13071;48.868;9.996;2023-10-19T12:18:02;15.05;;;8.85;;
25079;SDS011;13071;48.868;9.996;2023-10-19T12:20:29;15.32;;;8.73;;
25079;SDS011;13071;48.868;9.996;2023-10-19T12:22:57;13.98;;;8.40;;
25079;SDS011;13071;48.868;9.996;2023-10-19T12:25:24;16.92;;;8.30;;
25079;SDS011;13071;48.868;9.996;2023-10-19T12:27:54;16.13;;;8.30;;
25079;SDS011;13071;48.868;9.996;2023-10-19T12:30:22;13.93;;;8.27;;
25079;SDS011;13071;48.868;9.996;2023-10-19T12:32:52;18.27;;;9.40;;
25079;SDS011;13071;48.868;9.996;2023-10-19T12:35:19;17.48;;;9.50;;
25079;SDS011;13071;48.868;9.996;2023-10-19T12:37:50;18.45;;;9.40;;
25079;SDS011;13071;48.868;9.996;2023-10-19T12:40:17;16.90;;;9.70;;
25079;SDS011;13071;48.868;9.996;2023-10-19T12:42:53;17.83;;;9.48;;
25079;SDS011;13071;48.868;9.996;2023-10-19T12:45:21;20.40;;;10.88;;
25079;SDS011;13071;48.868;9.996;2023-10-19T12:47:48;20.40;;;11.27;;
25079;SDS011;13071;48.868;9.996;2023-10-19T12:50:18;19.75;;;10.25;;
25079;SDS011;13071;48.868;9.996;2023-10-19T12:52:47;19.13;;;10.82;;
25079;SDS011;13071;48.868;9.996;2023-10-19T12:55:14;21.17;;;10.95;;
25079;SDS011;13071;48.868;9.996;2023-10-19T12:57:41;19.83;;;10.82;;
25079;SDS011;13071;48.868;9.996;2023-10-19T13:00:08;20.73;;;10.55;;
25079;SDS011;13071;48.868;9.996;2023-10-19T13:02:50;26.10;;;11.25;;
25079;SDS011;13071;48.868;9.996;2023-10-19T13:05:26;22.52;;;11.50;;
25079;SDS011;13071;48.868;9.996;2023-10-19T13:07:53;25.88;;;11.18;;
25079;SDS011;13071;48.868;9.996;2023-10-19T13:10:23;19.92;;;10.10;;
25079;SDS011;13071;48.868;9.996;2023-10-19T13:12:53;18.98;;;10.43;;
25079;SDS011;13071;48.868;9.996;2023-10-19T13:15:20;18.70;;;9.52;;
25079;SDS011;13071;48.868;9.996;2023-10-19T13:17:47;20.90;;;9.88;;
25079;SDS011;13071;48.868;9.996;2023-10-19T13:20:14;23.63;;;10.55;;
25079;SDS011;13071;48.868;9.996;2023-10-19T13:22:45;25.05;;;10.52;;
25079;SDS011;13071;48.868;9.996;2023-10-19T13:25:12;20.83;;;10.02;;
25079;SDS011;13071;48.868;9.996;2023-10-19T13:27:42;17.27;;;9.70;;
25079;SDS011;13071;48.868;9.996;2023-10-19T13:30:09;21.40;;;10.32;;
25079;SDS011;13071;48.868;9.996;2023-10-19T13:32:37;17.40;;;9.93;;
25079;SDS011;13071;48.868;9.996;2023-10-19T13:35:04;19.95;;;11.30;;
25079;SDS011;13071;48.868;9.996;2023-10-19T13:37:32;23.70;;;12.32;;
25079;SDS011;13071;48.868;9.996;2023-10-19T13:40:00;23.58;;;12.55;;
25079;SDS011;13071;48.868;9.996;2023-10-19T13:42:27;24.08;;;12.20;;
25079;SDS011;13071;48.868;9.996;2023-10-19T13:44:54;18.65;;;11.52;;
25079;SDS011;13071;48.868;9.996;2023-10-19T13:47:21;20.02;;;11.32;;
25079;SDS011;13071;48.868;9.996;2023-10-19T13:49:48;21.77;;;12.07;;
25079;SDS011;13071;48.868;9.996;2023-10-19T13:52:14;25.92;;;13.05;;
25079;SDS011;13071;48.868;9.996;2023-10-19T13:54:41;21.38;;;11.65;;
25079;SDS011;13071;48.868;9.996;2023-10-19T13:57:09;20.98;;;11.52;;
25079;SDS011;13071;48.868;9.996;2023-10-19T13:59:35;20.77;;;11.73;;
25079;SDS011;13071;48.868;9.996;2023-10-19T14:02:02;20.52;;;11.38;;
25079;SDS011;13071;48.868;9.996;2023-10-19T14:04:29;20.92;;;11.35;;
25079;SDS011;13071;48.868;9.996;2023-10-19T14:06:56;24.52;;;12.02;;
25079;SDS011;13071;48.868;9.996;2023-10-19T14:09:22;21.52;;;11.95;;
25079;SDS011;13071;48.868;9.996;2023-10-19T14:11:51;20.40;;;11.52;;
25079;SDS011;13071;48.868;9.996;2023-10-19T14:14:19;22.23;;;11.63;;
25079;SDS011;13071;48.868;9.996;2023-10-19T14:16:46;20.90;;;11.20;;
25079;SDS011;13071;48.868;9.996;2023-10-19T14:19:15;16.40;;;9.85;;
25079;SDS011;13071;48.868;9.996;2023-10-19T14:21:42;21.85;;;10.95;;
25079;SDS011;13071;48.868;9.996;2023-10-19T14:24:11;19.48;;;11.02;;
25079;SDS011;13071;48.868;9.996;2023-10-19T14:26:38;19.83;;;11.27;;
25079;SDS011;13071;48.868;9.996;2023-10-19T14:29:07;21.27;;;11.43;;
25079;SDS011;13071;48.868;9.996;2023-10-19T14:31:35;22.55;;;12.80;;
25079;SDS011;13071;48.868;9.996;2023-10-19T14:34:02;22.23;;;12.07;;
25079;SDS011;13071;48.868;9.996;2023-10-19T14:36:29;21.75;;;11.20;;
25079;SDS011;13071;48.868;9.996;2023-10-19T14:38:56;21.67;;;11.57;;
25079;SDS011;13071;48.868;9.996;2023-10-19T14:41:23;25.98;;;11.93;;
25079;SDS011;13071;48.868;9.996;2023-10-19T14:43:49;23.60;;;12.10;;